sensor_id;sensor_type;location;lat;lon;timestamp;temperature;humidity
12911;DHT22;6523;49.758;6.120;2023-07-13T00:01:39;14.90;99.90
12911;DHT22;6523;49.758;6.120;2023-07-13T00:04:05;14.90;99.90
12911;DHT22;6523;49.758;6.120;2023-07-13T00:06:31;14.90;99.90
12911;DHT22;6523;49.758;6.120;2023-07-13T00:08:59;14.90;99.90
12911;DHT22;6523;49.758;6.120;2023-07-13T00:11:24;14.80;99.90
12911;DHT22;6523;49.758;6.120;2023-07-13T00:13:50;14.90;99.90
12911;DHT22;6523;49.758;6.120;2023-07-13T00:16:16;15.10;99.90
12911;DHT22;6523;49.758;6.120;2023-07-13T00:18:44;15.10;99.90
12911;DHT22;6523;49.758;6.120;2023-07-13T00:21:09;15.20;99.90
12911;DHT22;6523;49.758;6.120;2023-07-13T00:23:39;15.10;99.90
12911;DHT22;6523;49.758;6.120;2023-07-13T00:26:06;15.30;99.90
12911;DHT22;6523;49.758;6.120;2023-07-13T00:28:32;15.30;99.90
12911;DHT22;6523;49.758;6.120;2023-07-13T00:30:58;15.30;99.90
12911;DHT22;6523;49.758;6.120;2023-07-13T00:33:24;15.20;99.90
12911;DHT22;6523;49.758;6.120;2023-07-13T00:35:50;15.30;99.90
12911;DHT22;6523;49.758;6.120;2023-07-13T00:38:16;15.20;99.90
12911;DHT22;6523;49.758;6.120;2023-07-13T00:40:41;15.10;99.90
12911;DHT22;6523;49.758;6.120;2023-07-13T00:43:19;15.30;99.90
12911;DHT22;6523;49.758;6.120;2023-07-13T00:48:13;15.20;99.90
12911;DHT22;6523;49.758;6.120;2023-07-13T00:50:40;15.10;99.90
12911;DHT22;6523;49.758;6.120;2023-07-13T00:53:06;14.90;99.90
12911;DHT22;6523;49.758;6.120;2023-07-13T00:55:33;14.90;99.90
12911;DHT22;6523;49.758;6.120;2023-07-13T00:57:59;14.80;99.90
12911;DHT22;6523;49.758;6.120;2023-07-13T01:00:25;14.70;99.90
12911;DHT22;6523;49.758;6.120;2023-07-13T01:02:51;14.70;99.90
12911;DHT22;6523;49.758;6.120;2023-07-13T01:05:19;14.80;99.90
12911;DHT22;6523;49.758;6.120;2023-07-13T01:07:48;14.80;99.90
12911;DHT22;6523;49.758;6.120;2023-07-13T01:10:14;14.80;99.90
12911;DHT22;6523;49.758;6.120;2023-07-13T01:12:40;14.80;99.90
12911;DHT22;6523;49.758;6.120;2023-07-13T01:15:32;14.90;99.90
12911;DHT22;6523;49.758;6.120;2023-07-13T01:17:52;14.90;99.90
12911;DHT22;6523;49.758;6.120;2023-07-13T01:20:17;14.90;99.90
12911;DHT22;6523;49.758;6.120;2023-07-13T01:22:43;14.90;99.90
12911;DHT22;6523;49.758;6.120;2023-07-13T01:25:09;14.80;99.90
12911;DHT22;6523;49.758;6.120;2023-07-13T01:27:34;14.90;99.90
12911;DHT22;6523;49.758;6.120;2023-07-13T01:30:01;15.00;99.90
12911;DHT22;6523;49.758;6.120;2023-07-13T01:32:29;15.00;99.90
12911;DHT22;6523;49.758;6.120;2023-07-13T01:34:56;14.80;99.90
12911;DHT22;6523;49.758;6.120;2023-07-13T01:37:23;14.90;99.90
12911;DHT22;6523;49.758;6.120;2023-07-13T01:39:49;14.80;99.90
12911;DHT22;6523;49.758;6.120;2023-07-13T01:42:15;14.90;99.90
12911;DHT22;6523;49.758;6.120;2023-07-13T01:44:41;14.80;99.90
12911;DHT22;6523;49.758;6.120;2023-07-13T01:47:06;14.80;99.90
12911;DHT22;6523;49.758;6.120;2023-07-13T01:49:32;14.80;99.90
12911;DHT22;6523;49.758;6.120;2023-07-13T01:51:57;14.80;99.90
12911;DHT22;6523;49.758;6.120;2023-07-13T01:54:23;14.90;99.90
12911;DHT22;6523;49.758;6.120;2023-07-13T01:56:48;14.70;99.90
12911;DHT22;6523;49.758;6.120;2023-07-13T01:59:14;14.80;99.90
12911;DHT22;6523;49.758;6.120;2023-07-13T02:01:40;14.70;99.90
12911;DHT22;6523;49.758;6.120;2023-07-13T02:04:05;14.70;99.90
12911;DHT22;6523;49.758;6.120;2023-07-13T02:06:31;14.70;99.90
12911;DHT22;6523;49.758;6.120;2023-07-13T02:08:57;14.80;99.90
12911;DHT22;6523;49.758;6.120;2023-07-13T02:11:22;14.70;99.90
12911;DHT22;6523;49.758;6.120;2023-07-13T02:13:48;14.70;99.90
12911;DHT22;6523;49.758;6.120;2023-07-13T02:16:14;14.70;99.90
12911;DHT22;6523;49.758;6.120;2023-07-13T02:18:39;14.80;99.90
12911;DHT22;6523;49.758;6.120;2023-07-13T02:21:05;14.70;99.90
12911;DHT22;6523;49.758;6.120;2023-07-13T02:23:30;14.80;99.90
12911;DHT22;6523;49.758;6.120;2023-07-13T02:25:57;14.70;99.90
12911;DHT22;6523;49.758;6.120;2023-07-13T02:28:23;14.60;99.90
12911;DHT22;6523;49.758;6.120;2023-07-13T02:30:49;14.70;99.90
12911;DHT22;6523;49.758;6.120;2023-07-13T02:33:14;14.50;99.90
12911;DHT22;6523;49.758;6.120;2023-07-13T02:35:40;14.30;99.90
12911;DHT22;6523;49.758;6.120;2023-07-13T02:38:06;14.40;99.90
12911;DHT22;6523;49.758;6.120;2023-07-13T02:40:31;14.50;99.90
12911;DHT22;6523;49.758;6.120;2023-07-13T02:42:59;14.20;99.90
12911;DHT22;6523;49.758;6.120;2023-07-13T02:45:25;14.20;99.90
12911;DHT22;6523;49.758;6.120;2023-07-13T02:47:50;14.20;99.90
12911;DHT22;6523;49.758;6.120;2023-07-13T02:50:16;14.00;99.90
12911;DHT22;6523;49.758;6.120;2023-07-13T02:52:42;13.90;99.90
12911;DHT22;6523;49.758;6.120;2023-07-13T02:55:08;13.80;99.90
12911;DHT22;6523;49.758;6.120;2023-07-13T02:57:33;13.70;99.90
12911;DHT22;6523;49.758;6.120;2023-07-13T02:59:59;13.70;99.90
12911;DHT22;6523;49.758;6.120;2023-07-13T03:02:25;13.70;99.90
12911;DHT22;6523;49.758;6.120;2023-07-13T03:04:54;13.50;99.90
12911;DHT22;6523;49.758;6.120;2023-07-13T03:07:20;13.60;99.90
12911;DHT22;6523;49.758;6.120;2023-07-13T03:09:45;13.90;99.90
12911;DHT22;6523;49.758;6.120;2023-07-13T03:12:11;13.80;99.90
12911;DHT22;6523;49.758;6.120;2023-07-13T03:14:36;13.60;99.90
12911;DHT22;6523;49.758;6.120;2023-07-13T03:17:02;13.50;99.90
12911;DHT22;6523;49.758;6.120;2023-07-13T03:19:28;13.70;99.90
12911;DHT22;6523;49.758;6.120;2023-07-13T03:21:53;13.70;99.90
12911;DHT22;6523;49.758;6.120;2023-07-13T03:24:19;13.80;99.90
12911;DHT22;6523;49.758;6.120;2023-07-13T03:26:45;13.60;99.90
12911;DHT22;6523;49.758;6.120;2023-07-13T03:29:11;13.70;99.90
12911;DHT22;6523;49.758;6.120;2023-07-13T03:31:37;13.70;99.90
12911;DHT22;6523;49.758;6.120;2023-07-13T03:34:03;13.90;99.90
12911;DHT22;6523;49.758;6.120;2023-07-13T03:36:30;13.60;99.90
12911;DHT22;6523;49.758;6.120;2023-07-13T03:38:59;13.40;99.90
12911;DHT22;6523;49.758;6.120;2023-07-13T03:41:25;13.30;99.90
12911;DHT22;6523;49.758;6.120;2023-07-13T03:43:51;13.40;99.90
12911;DHT22;6523;49.758;6.120;2023-07-13T03:46:17;13.50;99.90
12911;DHT22;6523;49.758;6.120;2023-07-13T03:48:44;13.60;99.90
12911;DHT22;6523;49.758;6.120;2023-07-13T03:51:11;13.60;99.90
12911;DHT22;6523;49.758;6.120;2023-07-13T03:53:40;13.70;99.90
12911;DHT22;6523;49.758;6.120;2023-07-13T03:56:06;13.30;99.90
12911;DHT22;6523;49.758;6.120;2023-07-13T03:58:34;13.20;99.90
12911;DHT22;6523;49.758;6.120;2023-07-13T04:01:01;13.20;99.90
12911;DHT22;6523;49.758;6.120;2023-07-13T04:03:28;13.10;99.90
12911;DHT22;6523;49.758;6.120;2023-07-13T04:05:55;13.10;99.90
12911;DHT22;6523;49.758;6.120;2023-07-13T04:08:31;13.10;99.90
12911;DHT22;6523;49.758;6.120;2023-07-13T04:10:58;13.20;99.90
12911;DHT22;6523;49.758;6.120;2023-07-13T04:13:24;13.10;99.90
12911;DHT22;6523;49.758;6.120;2023-07-13T04:15:50;13.00;99.90
12911;DHT22;6523;49.758;6.120;2023-07-13T04:18:16;13.00;99.90
12911;DHT22;6523;49.758;6.120;2023-07-13T04:20:42;13.00;99.90
12911;DHT22;6523;49.758;6.120;2023-07-13T04:23:08;13.20;99.90
12911;DHT22;6523;49.758;6.120;2023-07-13T04:25:33;13.10;99.90
12911;DHT22;6523;49.758;6.120;2023-07-13T04:27:59;13.00;99.90
12911;DHT22;6523;49.758;6.120;2023-07-13T04:30:25;12.90;99.90
12911;DHT22;6523;49.758;6.120;2023-07-13T04:32:52;12.80;99.90
12911;DHT22;6523;49.758;6.120;2023-07-13T04:35:18;12.80;99.90
12911;DHT22;6523;49.758;6.120;2023-07-13T04:37:46;12.70;99.90
12911;DHT22;6523;49.758;6.120;2023-07-13T04:40:12;12.70;99.90
12911;DHT22;6523;49.758;6.120;2023-07-13T04:42:38;12.90;99.90
12911;DHT22;6523;49.758;6.120;2023-07-13T04:45:06;13.00;99.90
12911;DHT22;6523;49.758;6.120;2023-07-13T04:47:32;13.10;99.90
12911;DHT22;6523;49.758;6.120;2023-07-13T04:49:57;13.10;99.90
12911;DHT22;6523;49.758;6.120;2023-07-13T04:52:23;13.10;99.90
12911;DHT22;6523;49.758;6.120;2023-07-13T04:54:49;13.20;99.90
12911;DHT22;6523;49.758;6.120;2023-07-13T04:57:15;13.40;99.90
12911;DHT22;6523;49.758;6.120;2023-07-13T04:59:40;13.50;99.90
12911;DHT22;6523;49.758;6.120;2023-07-13T05:02:06;13.60;99.90
12911;DHT22;6523;49.758;6.120;2023-07-13T05:04:32;13.70;99.90
12911;DHT22;6523;49.758;6.120;2023-07-13T05:06:58;13.60;99.90
12911;DHT22;6523;49.758;6.120;2023-07-13T05:09:24;13.70;99.90
12911;DHT22;6523;49.758;6.120;2023-07-13T05:11:49;13.80;99.90
12911;DHT22;6523;49.758;6.120;2023-07-13T05:14:15;13.90;99.90
12911;DHT22;6523;49.758;6.120;2023-07-13T05:16:42;14.00;99.90
12911;DHT22;6523;49.758;6.120;2023-07-13T05:19:08;13.90;99.90
12911;DHT22;6523;49.758;6.120;2023-07-13T05:21:33;14.10;99.90
12911;DHT22;6523;49.758;6.120;2023-07-13T05:23:59;14.20;99.90
12911;DHT22;6523;49.758;6.120;2023-07-13T05:26:25;14.30;99.90
12911;DHT22;6523;49.758;6.120;2023-07-13T05:28:50;14.40;99.90
12911;DHT22;6523;49.758;6.120;2023-07-13T05:31:16;14.50;99.90
12911;DHT22;6523;49.758;6.120;2023-07-13T05:33:41;14.50;99.90
12911;DHT22;6523;49.758;6.120;2023-07-13T05:36:07;14.70;99.90
12911;DHT22;6523;49.758;6.120;2023-07-13T05:38:33;14.70;99.90
12911;DHT22;6523;49.758;6.120;2023-07-13T05:40:59;14.90;99.90
12911;DHT22;6523;49.758;6.120;2023-07-13T05:43:25;14.90;99.90
12911;DHT22;6523;49.758;6.120;2023-07-13T05:45:55;15.00;99.90
12911;DHT22;6523;49.758;6.120;2023-07-13T05:48:21;15.00;99.90
12911;DHT22;6523;49.758;6.120;2023-07-13T05:50:47;15.10;99.90
12911;DHT22;6523;49.758;6.120;2023-07-13T05:53:12;15.10;99.90
12911;DHT22;6523;49.758;6.120;2023-07-13T05:55:42;15.30;99.90
12911;DHT22;6523;49.758;6.120;2023-07-13T05:58:08;15.40;99.90
12911;DHT22;6523;49.758;6.120;2023-07-13T06:00:34;15.40;99.90
12911;DHT22;6523;49.758;6.120;2023-07-13T06:03:00;15.60;99.90
12911;DHT22;6523;49.758;6.120;2023-07-13T06:05:25;15.60;99.90
12911;DHT22;6523;49.758;6.120;2023-07-13T06:07:52;15.50;99.90
12911;DHT22;6523;49.758;6.120;2023-07-13T06:10:18;15.50;99.90
12911;DHT22;6523;49.758;6.120;2023-07-13T06:12:43;15.70;99.90
12911;DHT22;6523;49.758;6.120;2023-07-13T06:15:09;15.90;99.90
12911;DHT22;6523;49.758;6.120;2023-07-13T06:17:34;16.10;99.90
12911;DHT22;6523;49.758;6.120;2023-07-13T06:20:00;16.10;99.90
12911;DHT22;6523;49.758;6.120;2023-07-13T06:22:25;16.30;99.90
12911;DHT22;6523;49.758;6.120;2023-07-13T06:24:51;16.30;99.90
12911;DHT22;6523;49.758;6.120;2023-07-13T06:27:17;16.50;99.90
12911;DHT22;6523;49.758;6.120;2023-07-13T06:29:42;16.70;99.90
12911;DHT22;6523;49.758;6.120;2023-07-13T06:32:10;16.70;99.90
12911;DHT22;6523;49.758;6.120;2023-07-13T06:34:36;16.70;99.90
12911;DHT22;6523;49.758;6.120;2023-07-13T06:37:01;16.80;99.90
12911;DHT22;6523;49.758;6.120;2023-07-13T06:39:27;16.70;99.90
12911;DHT22;6523;49.758;6.120;2023-07-13T06:41:52;16.70;99.90
12911;DHT22;6523;49.758;6.120;2023-07-13T06:44:18;16.60;99.90
12911;DHT22;6523;49.758;6.120;2023-07-13T06:46:43;16.80;99.90
12911;DHT22;6523;49.758;6.120;2023-07-13T06:49:09;16.70;99.90
12911;DHT22;6523;49.758;6.120;2023-07-13T06:51:35;17.10;99.90
12911;DHT22;6523;49.758;6.120;2023-07-13T06:54:00;17.40;99.90
12911;DHT22;6523;49.758;6.120;2023-07-13T06:56:26;17.20;99.90
12911;DHT22;6523;49.758;6.120;2023-07-13T06:58:51;17.20;99.90
12911;DHT22;6523;49.758;6.120;2023-07-13T07:01:17;17.20;99.90
12911;DHT22;6523;49.758;6.120;2023-07-13T07:03:42;17.50;99.90
12911;DHT22;6523;49.758;6.120;2023-07-13T07:08:38;17.30;99.90
12911;DHT22;6523;49.758;6.120;2023-07-13T07:11:04;17.20;99.90
12911;DHT22;6523;49.758;6.120;2023-07-13T07:13:29;17.40;99.90
12911;DHT22;6523;49.758;6.120;2023-07-13T07:15:55;17.80;99.90
12911;DHT22;6523;49.758;6.120;2023-07-13T07:18:21;18.10;99.90
12911;DHT22;6523;49.758;6.120;2023-07-13T07:20:46;18.00;99.90
12911;DHT22;6523;49.758;6.120;2023-07-13T07:23:13;17.90;99.90
12911;DHT22;6523;49.758;6.120;2023-07-13T07:25:39;17.80;99.90
12911;DHT22;6523;49.758;6.120;2023-07-13T07:28:08;18.00;99.90
12911;DHT22;6523;49.758;6.120;2023-07-13T07:30:33;17.80;99.90
12911;DHT22;6523;49.758;6.120;2023-07-13T07:32:59;17.90;99.90
12911;DHT22;6523;49.758;6.120;2023-07-13T07:35:25;18.00;99.90
12911;DHT22;6523;49.758;6.120;2023-07-13T07:37:50;18.10;99.90
12911;DHT22;6523;49.758;6.120;2023-07-13T07:40:16;18.30;99.90
12911;DHT22;6523;49.758;6.120;2023-07-13T07:42:41;18.80;99.90
12911;DHT22;6523;49.758;6.120;2023-07-13T07:45:07;18.90;99.90
12911;DHT22;6523;49.758;6.120;2023-07-13T07:47:33;18.80;99.90
12911;DHT22;6523;49.758;6.120;2023-07-13T07:49:58;18.60;99.90
12911;DHT22;6523;49.758;6.120;2023-07-13T07:52:24;18.70;99.90
12911;DHT22;6523;49.758;6.120;2023-07-13T07:54:49;18.80;99.90
12911;DHT22;6523;49.758;6.120;2023-07-13T07:57:15;18.50;99.90
12911;DHT22;6523;49.758;6.120;2023-07-13T07:59:40;18.60;99.90
12911;DHT22;6523;49.758;6.120;2023-07-13T08:02:08;18.90;99.90
12911;DHT22;6523;49.758;6.120;2023-07-13T08:04:34;18.70;99.90
12911;DHT22;6523;49.758;6.120;2023-07-13T08:06:59;18.90;99.90
12911;DHT22;6523;49.758;6.120;2023-07-13T08:09:28;19.20;99.90
12911;DHT22;6523;49.758;6.120;2023-07-13T08:11:54;19.50;99.90
12911;DHT22;6523;49.758;6.120;2023-07-13T08:14:20;20.10;99.90
12911;DHT22;6523;49.758;6.120;2023-07-13T08:16:45;19.90;99.90
12911;DHT22;6523;49.758;6.120;2023-07-13T08:19:11;19.80;99.90
12911;DHT22;6523;49.758;6.120;2023-07-13T08:21:37;19.80;99.90
12911;DHT22;6523;49.758;6.120;2023-07-13T08:24:02;19.90;99.90
12911;DHT22;6523;49.758;6.120;2023-07-13T08:26:28;20.10;99.90
12911;DHT22;6523;49.758;6.120;2023-07-13T08:28:54;20.00;99.90
12911;DHT22;6523;49.758;6.120;2023-07-13T08:31:19;20.30;99.90
12911;DHT22;6523;49.758;6.120;2023-07-13T08:33:45;20.50;99.90
12911;DHT22;6523;49.758;6.120;2023-07-13T08:36:11;20.50;99.90
12911;DHT22;6523;49.758;6.120;2023-07-13T08:38:36;20.80;99.90
12911;DHT22;6523;49.758;6.120;2023-07-13T08:41:13;20.40;99.90
12911;DHT22;6523;49.758;6.120;2023-07-13T08:43:39;20.30;99.90
12911;DHT22;6523;49.758;6.120;2023-07-13T08:48:50;20.80;99.90
12911;DHT22;6523;49.758;6.120;2023-07-13T08:51:49;20.90;99.90
12911;DHT22;6523;49.758;6.120;2023-07-13T08:54:31;20.80;99.90
12911;DHT22;6523;49.758;6.120;2023-07-13T08:57:00;21.30;98.50
12911;DHT22;6523;49.758;6.120;2023-07-13T08:59:31;21.30;92.00
12911;DHT22;6523;49.758;6.120;2023-07-13T09:02:23;21.30;94.20
12911;DHT22;6523;49.758;6.120;2023-07-13T09:05:01;21.30;84.80
12911;DHT22;6523;49.758;6.120;2023-07-13T09:10:36;21.40;75.70
12911;DHT22;6523;49.758;6.120;2023-07-13T09:13:19;21.10;72.10
12911;DHT22;6523;49.758;6.120;2023-07-13T09:15:48;21.80;68.80
12911;DHT22;6523;49.758;6.120;2023-07-13T09:18:36;21.80;68.10
12911;DHT22;6523;49.758;6.120;2023-07-13T09:21:05;22.40;66.40
12911;DHT22;6523;49.758;6.120;2023-07-13T09:23:34;21.40;61.20
12911;DHT22;6523;49.758;6.120;2023-07-13T09:26:10;21.60;58.50
12911;DHT22;6523;49.758;6.120;2023-07-13T09:28:42;21.30;58.30
12911;DHT22;6523;49.758;6.120;2023-07-13T09:31:16;21.80;57.70
12911;DHT22;6523;49.758;6.120;2023-07-13T09:33:42;21.30;52.90
12911;DHT22;6523;49.758;6.120;2023-07-13T09:36:32;21.70;53.70
12911;DHT22;6523;49.758;6.120;2023-07-13T09:39:14;22.20;47.80
12911;DHT22;6523;49.758;6.120;2023-07-13T09:41:55;21.80;50.40
12911;DHT22;6523;49.758;6.120;2023-07-13T09:46:57;22.60;37.80
12911;DHT22;6523;49.758;6.120;2023-07-13T09:49:24;22.40;30.30
12911;DHT22;6523;49.758;6.120;2023-07-13T09:51:58;22.90;24.70
12911;DHT22;6523;49.758;6.120;2023-07-13T09:54:25;22.30;23.20
12911;DHT22;6523;49.758;6.120;2023-07-13T09:56:55;22.40;20.60
12911;DHT22;6523;49.758;6.120;2023-07-13T09:59:23;22.80;25.40
12911;DHT22;6523;49.758;6.120;2023-07-13T10:01:50;22.40;18.70
12911;DHT22;6523;49.758;6.120;2023-07-13T10:04:20;22.60;21.70
12911;DHT22;6523;49.758;6.120;2023-07-13T10:06:46;21.90;27.10
12911;DHT22;6523;49.758;6.120;2023-07-13T10:09:17;22.50;22.10
12911;DHT22;6523;49.758;6.120;2023-07-13T10:11:45;23.00;18.70
12911;DHT22;6523;49.758;6.120;2023-07-13T10:14:16;22.90;12.90
12911;DHT22;6523;49.758;6.120;2023-07-13T10:16:45;23.10;15.30
12911;DHT22;6523;49.758;6.120;2023-07-13T10:19:15;23.10;14.90
12911;DHT22;6523;49.758;6.120;2023-07-13T10:21:56;22.90;16.80
12911;DHT22;6523;49.758;6.120;2023-07-13T10:24:22;22.70;7.70
12911;DHT22;6523;49.758;6.120;2023-07-13T10:27:05;22.80;8.60
12911;DHT22;6523;49.758;6.120;2023-07-13T10:29:38;22.70;12.50
12911;DHT22;6523;49.758;6.120;2023-07-13T10:32:15;22.90;13.80
12911;DHT22;6523;49.758;6.120;2023-07-13T10:34:44;22.80;4.50
12911;DHT22;6523;49.758;6.120;2023-07-13T10:37:27;23.20;1.00
12911;DHT22;6523;49.758;6.120;2023-07-13T10:39:55;23.30;1.00
12911;DHT22;6523;49.758;6.120;2023-07-13T10:42:35;23.20;2.30
12911;DHT22;6523;49.758;6.120;2023-07-13T10:45:10;23.20;1.00
12911;DHT22;6523;49.758;6.120;2023-07-13T10:47:37;22.40;3.30
12911;DHT22;6523;49.758;6.120;2023-07-13T10:50:05;22.80;1.00
12911;DHT22;6523;49.758;6.120;2023-07-13T10:52:47;22.10;3.00
12911;DHT22;6523;49.758;6.120;2023-07-13T10:55:37;21.90;12.80
12911;DHT22;6523;49.758;6.120;2023-07-13T10:58:18;23.50;7.00
12911;DHT22;6523;49.758;6.120;2023-07-13T11:03:20;23.30;2.80
12911;DHT22;6523;49.758;6.120;2023-07-13T11:05:49;23.00;4.20
12911;DHT22;6523;49.758;6.120;2023-07-13T11:08:34;23.00;1.00
12911;DHT22;6523;49.758;6.120;2023-07-13T11:11:02;22.60;8.60
12911;DHT22;6523;49.758;6.120;2023-07-13T11:18:45;22.60;7.10
12911;DHT22;6523;49.758;6.120;2023-07-13T11:21:16;22.10;7.60
12911;DHT22;6523;49.758;6.120;2023-07-13T11:23:44;22.10;10.70
12911;DHT22;6523;49.758;6.120;2023-07-13T11:29:41;22.30;7.20
12911;DHT22;6523;49.758;6.120;2023-07-13T11:32:25;22.30;11.90
12911;DHT22;6523;49.758;6.120;2023-07-13T11:34:53;22.20;7.30
12911;DHT22;6523;49.758;6.120;2023-07-13T11:37:19;22.20;12.50
12911;DHT22;6523;49.758;6.120;2023-07-13T11:39:46;23.10;7.00
12911;DHT22;6523;49.758;6.120;2023-07-13T11:42:16;23.60;1.00
12911;DHT22;6523;49.758;6.120;2023-07-13T11:44:44;22.40;4.00
12911;DHT22;6523;49.758;6.120;2023-07-13T11:47:14;22.00;8.00
12911;DHT22;6523;49.758;6.120;2023-07-13T11:49:44;21.80;17.00
12911;DHT22;6523;49.758;6.120;2023-07-13T11:52:17;21.70;18.00
12911;DHT22;6523;49.758;6.120;2023-07-13T11:54:51;21.80;17.80
12911;DHT22;6523;49.758;6.120;2023-07-13T11:57:30;21.90;20.30
12911;DHT22;6523;49.758;6.120;2023-07-13T12:00:04;21.70;8.30
12911;DHT22;6523;49.758;6.120;2023-07-13T12:02:43;22.00;15.70
12911;DHT22;6523;49.758;6.120;2023-07-13T12:05:14;21.50;16.10
12911;DHT22;6523;49.758;6.120;2023-07-13T12:07:41;21.10;13.90
12911;DHT22;6523;49.758;6.120;2023-07-13T12:12:36;21.30;21.50
12911;DHT22;6523;49.758;6.120;2023-07-13T12:15:06;21.40;22.20
12911;DHT22;6523;49.758;6.120;2023-07-13T12:17:35;21.60;23.20
12911;DHT22;6523;49.758;6.120;2023-07-13T12:20:11;21.50;14.50
12911;DHT22;6523;49.758;6.120;2023-07-13T12:22:39;21.40;13.40
12911;DHT22;6523;49.758;6.120;2023-07-13T12:25:12;21.80;14.50
12911;DHT22;6523;49.758;6.120;2023-07-13T12:27:37;22.40;16.20
12911;DHT22;6523;49.758;6.120;2023-07-13T12:30:30;22.10;13.40
12911;DHT22;6523;49.758;6.120;2023-07-13T12:33:02;22.10;9.90
12911;DHT22;6523;49.758;6.120;2023-07-13T12:35:31;21.60;10.20
12911;DHT22;6523;49.758;6.120;2023-07-13T12:38:00;21.50;12.60
12911;DHT22;6523;49.758;6.120;2023-07-13T12:40:34;21.60;17.40
12911;DHT22;6523;49.758;6.120;2023-07-13T12:43:02;21.60;14.30
12911;DHT22;6523;49.758;6.120;2023-07-13T12:45:30;21.80;13.20
12911;DHT22;6523;49.758;6.120;2023-07-13T12:47:58;21.90;13.80
12911;DHT22;6523;49.758;6.120;2023-07-13T12:50:30;21.90;14.10
12911;DHT22;6523;49.758;6.120;2023-07-13T12:53:01;21.80;14.30
12911;DHT22;6523;49.758;6.120;2023-07-13T12:55:58;21.80;18.40
12911;DHT22;6523;49.758;6.120;2023-07-13T13:00:58;21.70;22.00
12911;DHT22;6523;49.758;6.120;2023-07-13T13:03:31;22.00;28.90
12911;DHT22;6523;49.758;6.120;2023-07-13T13:06:03;22.00;23.70
12911;DHT22;6523;49.758;6.120;2023-07-13T13:08:34;22.20;26.90
12911;DHT22;6523;49.758;6.120;2023-07-13T13:11:01;22.40;26.40
12911;DHT22;6523;49.758;6.120;2023-07-13T13:13:27;22.70;25.00
12911;DHT22;6523;49.758;6.120;2023-07-13T13:15:52;22.90;18.80
12911;DHT22;6523;49.758;6.120;2023-07-13T13:18:20;23.10;12.60
12911;DHT22;6523;49.758;6.120;2023-07-13T13:20:47;23.20;9.80
12911;DHT22;6523;49.758;6.120;2023-07-13T13:23:15;23.50;16.40
12911;DHT22;6523;49.758;6.120;2023-07-13T13:25:43;23.00;2.80
12911;DHT22;6523;49.758;6.120;2023-07-13T13:28:14;23.00;13.50
12911;DHT22;6523;49.758;6.120;2023-07-13T13:30:42;23.20;13.00
12911;DHT22;6523;49.758;6.120;2023-07-13T13:33:11;23.50;6.40
12911;DHT22;6523;49.758;6.120;2023-07-13T13:35:37;23.50;7.40
12911;DHT22;6523;49.758;6.120;2023-07-13T13:38:12;22.90;15.90
12911;DHT22;6523;49.758;6.120;2023-07-13T13:40:40;23.40;9.40
12911;DHT22;6523;49.758;6.120;2023-07-13T13:43:22;25.00;11.10
12911;DHT22;6523;49.758;6.120;2023-07-13T13:45:52;24.40;1.00
12911;DHT22;6523;49.758;6.120;2023-07-13T13:48:25;23.80;10.90
12911;DHT22;6523;49.758;6.120;2023-07-13T13:50:56;24.30;10.60
12911;DHT22;6523;49.758;6.120;2023-07-13T13:53:21;24.40;8.40
12911;DHT22;6523;49.758;6.120;2023-07-13T13:55:49;23.60;11.10
12911;DHT22;6523;49.758;6.120;2023-07-13T13:58:15;24.00;6.70
12911;DHT22;6523;49.758;6.120;2023-07-13T14:00:40;24.60;5.60
12911;DHT22;6523;49.758;6.120;2023-07-13T14:03:14;24.20;5.70
12911;DHT22;6523;49.758;6.120;2023-07-13T14:05:40;24.40;3.00
12911;DHT22;6523;49.758;6.120;2023-07-13T14:08:19;24.40;1.00
12911;DHT22;6523;49.758;6.120;2023-07-13T14:10:46;24.10;1.00
12911;DHT22;6523;49.758;6.120;2023-07-13T14:13:18;24.00;1.00
12911;DHT22;6523;49.758;6.120;2023-07-13T14:15:45;23.60;1.00
12911;DHT22;6523;49.758;6.120;2023-07-13T14:18:11;24.30;1.00
12911;DHT22;6523;49.758;6.120;2023-07-13T14:20:37;25.10;1.00
12911;DHT22;6523;49.758;6.120;2023-07-13T14:23:03;25.00;1.00
12911;DHT22;6523;49.758;6.120;2023-07-13T14:25:29;24.20;1.00
12911;DHT22;6523;49.758;6.120;2023-07-13T14:27:57;23.70;1.00
12911;DHT22;6523;49.758;6.120;2023-07-13T14:30:24;24.30;1.00
12911;DHT22;6523;49.758;6.120;2023-07-13T14:32:51;23.90;1.00
12911;DHT22;6523;49.758;6.120;2023-07-13T14:35:19;24.50;1.00
12911;DHT22;6523;49.758;6.120;2023-07-13T14:37:47;25.10;1.00
12911;DHT22;6523;49.758;6.120;2023-07-13T14:40:17;24.90;1.00
12911;DHT22;6523;49.758;6.120;2023-07-13T14:42:44;25.30;1.00
12911;DHT22;6523;49.758;6.120;2023-07-13T14:45:15;24.50;1.00
12911;DHT22;6523;49.758;6.120;2023-07-13T14:47:42;24.00;1.00
12911;DHT22;6523;49.758;6.120;2023-07-13T14:50:31;24.40;1.00
12911;DHT22;6523;49.758;6.120;2023-07-13T14:52:57;24.60;1.00
12911;DHT22;6523;49.758;6.120;2023-07-13T14:55:23;25.20;1.00
12911;DHT22;6523;49.758;6.120;2023-07-13T14:57:51;25.10;1.00
12911;DHT22;6523;49.758;6.120;2023-07-13T15:00:21;25.30;1.00
12911;DHT22;6523;49.758;6.120;2023-07-13T15:02:51;25.40;1.00
12911;DHT22;6523;49.758;6.120;2023-07-13T15:05:19;25.00;1.00
12911;DHT22;6523;49.758;6.120;2023-07-13T15:07:46;24.90;1.00
12911;DHT22;6523;49.758;6.120;2023-07-13T15:10:16;25.00;1.00
12911;DHT22;6523;49.758;6.120;2023-07-13T15:12:42;25.10;1.00
12911;DHT22;6523;49.758;6.120;2023-07-13T15:15:08;24.40;1.00
12911;DHT22;6523;49.758;6.120;2023-07-13T15:17:40;23.80;1.00
12911;DHT22;6523;49.758;6.120;2023-07-13T15:22:37;24.40;1.00
12911;DHT22;6523;49.758;6.120;2023-07-13T15:25:02;25.00;1.00
12911;DHT22;6523;49.758;6.120;2023-07-13T15:27:29;24.10;1.00
12911;DHT22;6523;49.758;6.120;2023-07-13T15:29:54;23.80;1.00
12911;DHT22;6523;49.758;6.120;2023-07-13T15:32:20;24.20;1.00
12911;DHT22;6523;49.758;6.120;2023-07-13T15:34:46;24.50;1.00
12911;DHT22;6523;49.758;6.120;2023-07-13T15:37:14;23.50;1.00
12911;DHT22;6523;49.758;6.120;2023-07-13T15:39:40;23.70;1.00
12911;DHT22;6523;49.758;6.120;2023-07-13T15:42:13;24.40;1.00
12911;DHT22;6523;49.758;6.120;2023-07-13T15:44:39;24.90;1.00
12911;DHT22;6523;49.758;6.120;2023-07-13T15:47:05;24.10;1.00
12911;DHT22;6523;49.758;6.120;2023-07-13T15:49:32;23.60;1.00
12911;DHT22;6523;49.758;6.120;2023-07-13T15:51:57;23.10;1.00
12911;DHT22;6523;49.758;6.120;2023-07-13T15:54:23;23.10;3.10
12911;DHT22;6523;49.758;6.120;2023-07-13T15:56:53;24.00;1.00
12911;DHT22;6523;49.758;6.120;2023-07-13T15:59:19;23.80;1.00
12911;DHT22;6523;49.758;6.120;2023-07-13T16:01:44;23.50;1.00
12911;DHT22;6523;49.758;6.120;2023-07-13T16:04:12;23.50;1.00
12911;DHT22;6523;49.758;6.120;2023-07-13T16:06:40;23.10;1.00
12911;DHT22;6523;49.758;6.120;2023-07-13T16:09:07;23.40;1.00
12911;DHT22;6523;49.758;6.120;2023-07-13T16:11:36;23.70;1.00
12911;DHT22;6523;49.758;6.120;2023-07-13T16:14:03;24.20;1.00
12911;DHT22;6523;49.758;6.120;2023-07-13T16:16:31;24.90;1.00
12911;DHT22;6523;49.758;6.120;2023-07-13T16:19:02;25.00;1.00
12911;DHT22;6523;49.758;6.120;2023-07-13T16:21:32;23.70;1.00
12911;DHT22;6523;49.758;6.120;2023-07-13T16:24:00;23.20;1.30
12911;DHT22;6523;49.758;6.120;2023-07-13T16:26:38;24.30;1.00
12911;DHT22;6523;49.758;6.120;2023-07-13T16:29:15;23.90;1.00